sensor_id;sensor_type;location;lat;lon;timestamp;P1;durP1;ratioP1;P2;durP2;ratioP2
58302;SDS011;44109;52.398;7.024;2023-03-20T00:02:01;36.65;;;18.00;;
58302;SDS011;44109;52.398;7.024;2023-03-20T00:04:29;43.65;;;22.35;;
58302;SDS011;44109;52.398;7.024;2023-03-20T00:06:57;40.90;;;23.27;;
58302;SDS011;44109;52.398;7.024;2023-03-20T00:09:25;42.08;;;21.25;;
58302;SDS011;44109;52.398;7.024;2023-03-20T00:11:53;37.42;;;20.10;;
58302;SDS011;44109;52.398;7.024;2023-03-20T00:14:22;39.47;;;19.95;;
58302;SDS011;44109;52.398;7.024;2023-03-20T00:16:52;31.73;;;17.98;;
58302;SDS011;44109;52.398;7.024;2023-03-20T00:19:20;37.10;;;19.15;;
58302;SDS011;44109;52.398;7.024;2023-03-20T00:21:50;36.28;;;19.23;;
58302;SDS011;44109;52.398;7.024;2023-03-20T00:24:20;33.58;;;17.58;;
58302;SDS011;44109;52.398;7.024;2023-03-20T00:26:50;35.92;;;18.67;;
58302;SDS011;44109;52.398;7.024;2023-03-20T00:29:20;40.92;;;19.73;;
58302;SDS011;44109;52.398;7.024;2023-03-20T00:31:52;35.85;;;20.42;;
58302;SDS011;44109;52.398;7.024;2023-03-20T00:34:21;35.58;;;17.00;;
58302;SDS011;44109;52.398;7.024;2023-03-20T00:36:53;30.63;;;17.25;;
58302;SDS011;44109;52.398;7.024;2023-03-20T00:39:22;30.15;;;15.15;;
58302;SDS011;44109;52.398;7.024;2023-03-20T00:41:50;39.25;;;19.50;;
58302;SDS011;44109;52.398;7.024;2023-03-20T00:44:21;35.35;;;18.80;;
58302;SDS011;44109;52.398;7.024;2023-03-20T00:46:54;27.65;;;14.98;;
58302;SDS011;44109;52.398;7.024;2023-03-20T00:49:26;34.15;;;18.02;;
58302;SDS011;44109;52.398;7.024;2023-03-20T00:51:57;24.75;;;13.95;;
58302;SDS011;44109;52.398;7.024;2023-03-20T00:54:26;25.77;;;14.60;;
58302;SDS011;44109;52.398;7.024;2023-03-20T00:56:54;30.08;;;14.98;;
58302;SDS011;44109;52.398;7.024;2023-03-20T00:59:28;29.05;;;14.68;;
58302;SDS011;44109;52.398;7.024;2023-03-20T01:02:02;23.05;;;13.25;;
58302;SDS011;44109;52.398;7.024;2023-03-20T01:04:33;29.50;;;14.82;;
58302;SDS011;44109;52.398;7.024;2023-03-20T01:07:04;25.05;;;14.15;;
58302;SDS011;44109;52.398;7.024;2023-03-20T01:09:36;24.47;;;13.63;;
58302;SDS011;44109;52.398;7.024;2023-03-20T01:12:04;24.30;;;14.00;;
58302;SDS011;44109;52.398;7.024;2023-03-20T01:14:34;24.92;;;13.48;;
58302;SDS011;44109;52.398;7.024;2023-03-20T01:17:04;29.88;;;16.83;;
58302;SDS011;44109;52.398;7.024;2023-03-20T01:19:32;28.67;;;15.60;;
58302;SDS011;44109;52.398;7.024;2023-03-20T01:21:59;28.83;;;14.30;;
58302;SDS011;44109;52.398;7.024;2023-03-20T01:24:29;26.40;;;14.57;;
58302;SDS011;44109;52.398;7.024;2023-03-20T01:26:56;24.30;;;13.73;;
58302;SDS011;44109;52.398;7.024;2023-03-20T01:29:28;25.25;;;14.45;;
58302;SDS011;44109;52.398;7.024;2023-03-20T01:31:57;26.60;;;13.77;;
58302;SDS011;44109;52.398;7.024;2023-03-20T01:34:26;22.67;;;12.77;;
58302;SDS011;44109;52.398;7.024;2023-03-20T01:36:54;22.67;;;12.30;;
58302;SDS011;44109;52.398;7.024;2023-03-20T01:39:26;24.90;;;12.82;;
58302;SDS011;44109;52.398;7.024;2023-03-20T01:41:59;19.88;;;12.02;;
58302;SDS011;44109;52.398;7.024;2023-03-20T01:44:31;23.40;;;12.10;;
58302;SDS011;44109;52.398;7.024;2023-03-20T01:47:01;22.00;;;11.75;;
58302;SDS011;44109;52.398;7.024;2023-03-20T01:52:49;19.90;;;11.60;;
58302;SDS011;44109;52.398;7.024;2023-03-20T01:55:26;23.88;;;13.23;;
58302;SDS011;44109;52.398;7.024;2023-03-20T01:57:55;23.65;;;12.02;;
58302;SDS011;44109;52.398;7.024;2023-03-20T02:00:28;22.87;;;13.37;;
58302;SDS011;44109;52.398;7.024;2023-03-20T02:02:55;24.73;;;13.75;;
58302;SDS011;44109;52.398;7.024;2023-03-20T02:05:26;21.90;;;11.57;;
58302;SDS011;44109;52.398;7.024;2023-03-20T02:07:56;22.23;;;11.55;;
58302;SDS011;44109;52.398;7.024;2023-03-20T02:10:43;20.08;;;11.23;;
58302;SDS011;44109;52.398;7.024;2023-03-20T02:13:12;24.25;;;12.40;;
58302;SDS011;44109;52.398;7.024;2023-03-20T02:15:58;19.15;;;11.13;;
58302;SDS011;44109;52.398;7.024;2023-03-20T02:18:32;20.92;;;11.05;;
58302;SDS011;44109;52.398;7.024;2023-03-20T02:24:53;24.73;;;12.30;;
58302;SDS011;44109;52.398;7.024;2023-03-20T02:28:02;22.40;;;11.15;;
58302;SDS011;44109;52.398;7.024;2023-03-20T02:31:18;22.00;;;9.85;;
58302;SDS011;44109;52.398;7.024;2023-03-20T02:41:12;19.55;;;11.73;;
58302;SDS011;44109;52.398;7.024;2023-03-20T02:43:53;27.80;;;13.85;;
58302;SDS011;44109;52.398;7.024;2023-03-20T02:46:37;31.45;;;17.20;;
58302;SDS011;44109;52.398;7.024;2023-03-20T02:49:17;26.85;;;15.18;;
58302;SDS011;44109;52.398;7.024;2023-03-20T02:52:07;26.30;;;13.52;;
58302;SDS011;44109;52.398;7.024;2023-03-20T02:54:49;28.05;;;15.57;;
58302;SDS011;44109;52.398;7.024;2023-03-20T02:57:32;34.15;;;16.40;;
58302;SDS011;44109;52.398;7.024;2023-03-20T03:00:12;29.40;;;13.57;;
58302;SDS011;44109;52.398;7.024;2023-03-20T03:02:51;28.02;;;14.63;;
58302;SDS011;44109;52.398;7.024;2023-03-20T03:05:33;35.05;;;15.43;;
58302;SDS011;44109;52.398;7.024;2023-03-20T03:08:07;31.83;;;15.82;;
58302;SDS011;44109;52.398;7.024;2023-03-20T03:10:40;25.13;;;12.35;;
58302;SDS011;44109;52.398;7.024;2023-03-20T03:13:16;31.42;;;15.07;;
58302;SDS011;44109;52.398;7.024;2023-03-20T03:15:51;26.80;;;13.70;;
58302;SDS011;44109;52.398;7.024;2023-03-20T03:18:27;30.70;;;16.95;;
58302;SDS011;44109;52.398;7.024;2023-03-20T03:20:59;27.95;;;14.95;;
58302;SDS011;44109;52.398;7.024;2023-03-20T03:23:33;22.83;;;11.20;;
58302;SDS011;44109;52.398;7.024;2023-03-20T03:26:08;19.25;;;10.95;;
58302;SDS011;44109;52.398;7.024;2023-03-20T03:28:47;30.00;;;14.10;;
58302;SDS011;44109;52.398;7.024;2023-03-20T03:31:18;21.35;;;12.18;;
58302;SDS011;44109;52.398;7.024;2023-03-20T03:33:49;24.90;;;12.15;;
58302;SDS011;44109;52.398;7.024;2023-03-20T03:36:24;23.98;;;11.40;;
58302;SDS011;44109;52.398;7.024;2023-03-20T03:39:06;20.38;;;11.88;;
58302;SDS011;44109;52.398;7.024;2023-03-20T03:41:43;22.17;;;12.38;;
58302;SDS011;44109;52.398;7.024;2023-03-20T03:44:19;26.58;;;13.38;;
58302;SDS011;44109;52.398;7.024;2023-03-20T03:46:55;26.77;;;13.18;;
58302;SDS011;44109;52.398;7.024;2023-03-20T03:49:29;25.08;;;15.52;;
58302;SDS011;44109;52.398;7.024;2023-03-20T03:52:04;30.48;;;13.50;;
58302;SDS011;44109;52.398;7.024;2023-03-20T03:54:38;25.55;;;14.68;;
58302;SDS011;44109;52.398;7.024;2023-03-20T03:57:11;24.83;;;13.48;;
58302;SDS011;44109;52.398;7.024;2023-03-20T03:59:46;26.17;;;12.63;;
58302;SDS011;44109;52.398;7.024;2023-03-20T04:02:19;22.23;;;11.95;;
58302;SDS011;44109;52.398;7.024;2023-03-20T04:04:50;16.40;;;9.95;;
58302;SDS011;44109;52.398;7.024;2023-03-20T04:07:23;19.98;;;10.38;;
58302;SDS011;44109;52.398;7.024;2023-03-20T04:09:54;24.25;;;13.25;;
58302;SDS011;44109;52.398;7.024;2023-03-20T04:15:11;22.20;;;13.70;;
58302;SDS011;44109;52.398;7.024;2023-03-20T04:17:40;18.67;;;11.40;;
58302;SDS011;44109;52.398;7.024;2023-03-20T04:20:10;22.65;;;11.63;;
58302;SDS011;44109;52.398;7.024;2023-03-20T04:22:39;20.30;;;12.02;;
58302;SDS011;44109;52.398;7.024;2023-03-20T04:25:08;22.60;;;12.50;;
58302;SDS011;44109;52.398;7.024;2023-03-20T04:27:46;27.08;;;13.10;;
58302;SDS011;44109;52.398;7.024;2023-03-20T04:30:16;24.25;;;11.35;;
58302;SDS011;44109;52.398;7.024;2023-03-20T04:32:45;24.30;;;12.73;;
58302;SDS011;44109;52.398;7.024;2023-03-20T04:35:12;21.52;;;11.85;;
58302;SDS011;44109;52.398;7.024;2023-03-20T04:37:40;21.23;;;11.43;;
58302;SDS011;44109;52.398;7.024;2023-03-20T04:40:08;21.63;;;11.80;;
58302;SDS011;44109;52.398;7.024;2023-03-20T04:42:38;26.13;;;13.65;;
58302;SDS011;44109;52.398;7.024;2023-03-20T04:45:06;19.50;;;13.05;;
58302;SDS011;44109;52.398;7.024;2023-03-20T04:47:36;20.02;;;11.80;;
58302;SDS011;44109;52.398;7.024;2023-03-20T04:50:04;20.92;;;11.40;;
58302;SDS011;44109;52.398;7.024;2023-03-20T04:52:33;22.77;;;12.35;;
58302;SDS011;44109;52.398;7.024;2023-03-20T04:55:01;18.83;;;11.65;;
58302;SDS011;44109;52.398;7.024;2023-03-20T04:57:28;20.70;;;12.10;;
58302;SDS011;44109;52.398;7.024;2023-03-20T04:59:56;24.77;;;14.88;;
58302;SDS011;44109;52.398;7.024;2023-03-20T05:02:24;27.88;;;14.23;;
58302;SDS011;44109;52.398;7.024;2023-03-20T05:04:53;18.92;;;11.27;;
58302;SDS011;44109;52.398;7.024;2023-03-20T05:07:21;28.10;;;15.07;;
58302;SDS011;44109;52.398;7.024;2023-03-20T05:09:48;24.92;;;14.77;;
58302;SDS011;44109;52.398;7.024;2023-03-20T05:12:16;21.75;;;13.05;;
58302;SDS011;44109;52.398;7.024;2023-03-20T05:14:44;24.70;;;14.88;;
58302;SDS011;44109;52.398;7.024;2023-03-20T05:17:11;22.48;;;12.55;;
58302;SDS011;44109;52.398;7.024;2023-03-20T05:19:39;20.15;;;12.55;;
58302;SDS011;44109;52.398;7.024;2023-03-20T05:22:09;17.75;;;10.88;;
58302;SDS011;44109;52.398;7.024;2023-03-20T05:24:36;23.17;;;14.02;;
58302;SDS011;44109;52.398;7.024;2023-03-20T05:27:04;17.27;;;10.10;;
58302;SDS011;44109;52.398;7.024;2023-03-20T05:29:32;21.75;;;12.77;;
58302;SDS011;44109;52.398;7.024;2023-03-20T05:31:59;20.83;;;12.82;;
58302;SDS011;44109;52.398;7.024;2023-03-20T05:34:27;20.67;;;13.38;;
58302;SDS011;44109;52.398;7.024;2023-03-20T05:36:55;20.90;;;11.82;;
58302;SDS011;44109;52.398;7.024;2023-03-20T05:39:24;21.15;;;11.93;;
58302;SDS011;44109;52.398;7.024;2023-03-20T05:41:52;18.75;;;10.20;;
58302;SDS011;44109;52.398;7.024;2023-03-20T05:44:19;22.38;;;13.45;;
58302;SDS011;44109;52.398;7.024;2023-03-20T05:46:47;19.02;;;10.95;;
58302;SDS011;44109;52.398;7.024;2023-03-20T05:49:14;23.20;;;13.75;;
58302;SDS011;44109;52.398;7.024;2023-03-20T05:51:42;17.02;;;10.18;;
58302;SDS011;44109;52.398;7.024;2023-03-20T05:54:10;15.82;;;9.50;;
58302;SDS011;44109;52.398;7.024;2023-03-20T05:56:39;15.80;;;9.52;;
58302;SDS011;44109;52.398;7.024;2023-03-20T05:59:07;14.07;;;9.05;;
58302;SDS011;44109;52.398;7.024;2023-03-20T06:01:34;12.70;;;8.20;;
58302;SDS011;44109;52.398;7.024;2023-03-20T06:04:02;14.80;;;8.93;;
58302;SDS011;44109;52.398;7.024;2023-03-20T06:06:29;13.20;;;7.70;;
58302;SDS011;44109;52.398;7.024;2023-03-20T06:08:57;11.90;;;7.32;;
58302;SDS011;44109;52.398;7.024;2023-03-20T06:11:25;11.73;;;7.28;;
58302;SDS011;44109;52.398;7.024;2023-03-20T06:13:54;13.02;;;8.05;;
58302;SDS011;44109;52.398;7.024;2023-03-20T06:16:23;10.13;;;5.75;;
58302;SDS011;44109;52.398;7.024;2023-03-20T06:18:52;9.35;;;5.85;;
58302;SDS011;44109;52.398;7.024;2023-03-20T06:21:19;13.60;;;6.85;;
58302;SDS011;44109;52.398;7.024;2023-03-20T06:23:47;13.20;;;6.20;;
58302;SDS011;44109;52.398;7.024;2023-03-20T06:26:14;9.23;;;6.05;;
58302;SDS011;44109;52.398;7.024;2023-03-20T06:28:42;10.75;;;5.82;;
58302;SDS011;44109;52.398;7.024;2023-03-20T06:31:11;10.32;;;5.40;;
58302;SDS011;44109;52.398;7.024;2023-03-20T06:33:39;12.02;;;6.57;;
58302;SDS011;44109;52.398;7.024;2023-03-20T06:36:06;10.88;;;6.03;;
58302;SDS011;44109;52.398;7.024;2023-03-20T06:38:35;8.30;;;4.25;;
58302;SDS011;44109;52.398;7.024;2023-03-20T06:41:02;10.63;;;5.20;;
58302;SDS011;44109;52.398;7.024;2023-03-20T06:43:31;8.95;;;5.35;;
58302;SDS011;44109;52.398;7.024;2023-03-20T06:45:59;9.48;;;5.68;;
58302;SDS011;44109;52.398;7.024;2023-03-20T06:48:28;11.82;;;5.70;;
58302;SDS011;44109;52.398;7.024;2023-03-20T06:50:56;14.20;;;6.95;;
58302;SDS011;44109;52.398;7.024;2023-03-20T06:53:23;11.75;;;4.65;;
58302;SDS011;44109;52.398;7.024;2023-03-20T06:55:51;14.05;;;5.10;;
58302;SDS011;44109;52.398;7.024;2023-03-20T06:58:19;11.88;;;6.18;;
58302;SDS011;44109;52.398;7.024;2023-03-20T07:00:47;17.67;;;6.53;;
58302;SDS011;44109;52.398;7.024;2023-03-20T07:03:15;12.82;;;7.43;;
58302;SDS011;44109;52.398;7.024;2023-03-20T07:05:44;13.90;;;7.28;;
58302;SDS011;44109;52.398;7.024;2023-03-20T07:08:11;13.40;;;6.15;;
58302;SDS011;44109;52.398;7.024;2023-03-20T07:10:39;13.25;;;7.30;;
58302;SDS011;44109;52.398;7.024;2023-03-20T07:13:07;13.38;;;6.72;;
58302;SDS011;44109;52.398;7.024;2023-03-20T07:15:36;15.60;;;7.78;;
58302;SDS011;44109;52.398;7.024;2023-03-20T07:18:04;19.65;;;9.05;;
58302;SDS011;44109;52.398;7.024;2023-03-20T07:20:32;17.05;;;9.20;;
58302;SDS011;44109;52.398;7.024;2023-03-20T07:23:01;14.15;;;7.90;;
58302;SDS011;44109;52.398;7.024;2023-03-20T07:25:28;15.18;;;8.77;;
58302;SDS011;44109;52.398;7.024;2023-03-20T07:27:57;16.88;;;9.98;;
58302;SDS011;44109;52.398;7.024;2023-03-20T07:30:24;13.57;;;7.80;;
58302;SDS011;44109;52.398;7.024;2023-03-20T07:32:52;13.60;;;7.82;;
58302;SDS011;44109;52.398;7.024;2023-03-20T07:35:20;16.70;;;7.90;;
58302;SDS011;44109;52.398;7.024;2023-03-20T07:37:48;21.88;;;8.45;;
58302;SDS011;44109;52.398;7.024;2023-03-20T07:40:17;17.85;;;10.15;;
58302;SDS011;44109;52.398;7.024;2023-03-20T07:42:45;13.25;;;6.90;;
58302;SDS011;44109;52.398;7.024;2023-03-20T07:45:13;17.58;;;8.88;;
58302;SDS011;44109;52.398;7.024;2023-03-20T07:47:43;15.80;;;7.07;;
58302;SDS011;44109;52.398;7.024;2023-03-20T07:50:13;16.30;;;7.93;;
58302;SDS011;44109;52.398;7.024;2023-03-20T07:52:44;13.88;;;7.47;;
58302;SDS011;44109;52.398;7.024;2023-03-20T07:55:13;17.48;;;10.25;;
58302;SDS011;44109;52.398;7.024;2023-03-20T07:57:42;17.88;;;10.05;;
58302;SDS011;44109;52.398;7.024;2023-03-20T08:00:11;20.98;;;9.30;;
58302;SDS011;44109;52.398;7.024;2023-03-20T08:02:40;16.55;;;8.32;;
58302;SDS011;44109;52.398;7.024;2023-03-20T08:05:08;17.35;;;9.25;;
58302;SDS011;44109;52.398;7.024;2023-03-20T08:07:36;16.45;;;8.57;;
58302;SDS011;44109;52.398;7.024;2023-03-20T08:10:04;12.80;;;7.93;;
58302;SDS011;44109;52.398;7.024;2023-03-20T08:12:32;16.65;;;8.85;;
58302;SDS011;44109;52.398;7.024;2023-03-20T08:15:01;14.00;;;7.78;;
58302;SDS011;44109;52.398;7.024;2023-03-20T08:17:29;16.83;;;7.97;;
58302;SDS011;44109;52.398;7.024;2023-03-20T08:19:57;14.27;;;7.28;;
58302;SDS011;44109;52.398;7.024;2023-03-20T08:22:25;14.80;;;7.75;;
58302;SDS011;44109;52.398;7.024;2023-03-20T08:24:53;20.05;;;9.93;;
58302;SDS011;44109;52.398;7.024;2023-03-20T08:27:20;12.60;;;7.68;;
58302;SDS011;44109;52.398;7.024;2023-03-20T08:29:48;15.23;;;8.25;;
58302;SDS011;44109;52.398;7.024;2023-03-20T08:32:17;20.75;;;7.97;;
58302;SDS011;44109;52.398;7.024;2023-03-20T08:34:45;17.15;;;8.68;;
58302;SDS011;44109;52.398;7.024;2023-03-20T08:37:13;15.27;;;8.27;;
58302;SDS011;44109;52.398;7.024;2023-03-20T08:39:40;12.55;;;6.78;;
58302;SDS011;44109;52.398;7.024;2023-03-20T08:42:09;14.52;;;7.82;;
58302;SDS011;44109;52.398;7.024;2023-03-20T08:44:36;16.23;;;7.28;;
58302;SDS011;44109;52.398;7.024;2023-03-20T08:47:04;15.25;;;7.80;;
58302;SDS011;44109;52.398;7.024;2023-03-20T08:49:34;11.27;;;6.70;;
58302;SDS011;44109;52.398;7.024;2023-03-20T08:52:01;13.38;;;7.18;;
58302;SDS011;44109;52.398;7.024;2023-03-20T08:54:30;13.98;;;7.18;;
58302;SDS011;44109;52.398;7.024;2023-03-20T08:56:58;17.00;;;7.63;;
58302;SDS011;44109;52.398;7.024;2023-03-20T08:59:26;16.67;;;9.13;;
58302;SDS011;44109;52.398;7.024;2023-03-20T09:01:54;13.98;;;7.63;;
58302;SDS011;44109;52.398;7.024;2023-03-20T09:04:21;13.65;;;7.25;;
58302;SDS011;44109;52.398;7.024;2023-03-20T09:06:51;13.80;;;7.65;;
58302;SDS011;44109;52.398;7.024;2023-03-20T09:09:19;15.32;;;7.90;;
58302;SDS011;44109;52.398;7.024;2023-03-20T09:11:54;11.38;;;6.45;;
58302;SDS011;44109;52.398;7.024;2023-03-20T09:14:22;16.00;;;7.93;;
58302;SDS011;44109;52.398;7.024;2023-03-20T09:16:51;16.30;;;7.20;;
58302;SDS011;44109;52.398;7.024;2023-03-20T09:19:19;15.50;;;7.25;;
58302;SDS011;44109;52.398;7.024;2023-03-20T09:21:46;10.70;;;6.13;;
58302;SDS011;44109;52.398;7.024;2023-03-20T09:24:16;15.50;;;7.30;;
58302;SDS011;44109;52.398;7.024;2023-03-20T09:26:43;12.95;;;6.82;;
58302;SDS011;44109;52.398;7.024;2023-03-20T09:29:11;13.35;;;6.38;;
58302;SDS011;44109;52.398;7.024;2023-03-20T09:31:39;12.65;;;5.75;;
58302;SDS011;44109;52.398;7.024;2023-03-20T09:34:06;12.30;;;7.03;;
58302;SDS011;44109;52.398;7.024;2023-03-20T09:36:34;14.38;;;7.78;;
58302;SDS011;44109;52.398;7.024;2023-03-20T09:39:02;10.00;;;5.50;;
58302;SDS011;44109;52.398;7.024;2023-03-20T09:41:31;11.52;;;6.07;;
58302;SDS011;44109;52.398;7.024;2023-03-20T09:44:09;14.68;;;7.32;;
58302;SDS011;44109;52.398;7.024;2023-03-20T09:46:48;12.20;;;6.40;;
58302;SDS011;44109;52.398;7.024;2023-03-20T09:49:37;11.32;;;6.35;;
58302;SDS011;44109;52.398;7.024;2023-03-20T09:52:23;11.95;;;6.47;;
58302;SDS011;44109;52.398;7.024;2023-03-20T09:54:56;9.57;;;5.35;;
58302;SDS011;44109;52.398;7.024;2023-03-20T09:57:33;8.43;;;4.78;;
58302;SDS011;44109;52.398;7.024;2023-03-20T10:00:07;12.15;;;6.78;;
58302;SDS011;44109;52.398;7.024;2023-03-20T10:02:45;10.23;;;5.40;;
58302;SDS011;44109;52.398;7.024;2023-03-20T10:05:19;14.10;;;7.45;;
58302;SDS011;44109;52.398;7.024;2023-03-20T10:07:52;12.68;;;6.30;;
58302;SDS011;44109;52.398;7.024;2023-03-20T10:10:26;10.38;;;5.78;;
58302;SDS011;44109;52.398;7.024;2023-03-20T10:13:10;13.50;;;7.15;;
58302;SDS011;44109;52.398;7.024;2023-03-20T10:16:12;10.00;;;4.82;;
58302;SDS011;44109;52.398;7.024;2023-03-20T10:18:52;12.88;;;5.15;;
58302;SDS011;44109;52.398;7.024;2023-03-20T10:21:34;11.95;;;5.30;;
58302;SDS011;44109;52.398;7.024;2023-03-20T10:24:10;9.85;;;4.18;;
58302;SDS011;44109;52.398;7.024;2023-03-20T10:26:47;7.80;;;3.78;;
58302;SDS011;44109;52.398;7.024;2023-03-20T10:29:23;9.33;;;3.93;;
58302;SDS011;44109;52.398;7.024;2023-03-20T10:32:07;10.30;;;5.20;;
58302;SDS011;44109;52.398;7.024;2023-03-20T10:34:48;11.75;;;3.53;;
58302;SDS011;44109;52.398;7.024;2023-03-20T10:37:33;10.98;;;4.13;;
58302;SDS011;44109;52.398;7.024;2023-03-20T10:42:58;7.15;;;4.32;;
58302;SDS011;44109;52.398;7.024;2023-03-20T10:45:35;9.40;;;4.28;;
58302;SDS011;44109;52.398;7.024;2023-03-20T10:48:11;9.35;;;5.30;;
58302;SDS011;44109;52.398;7.024;2023-03-20T10:50:48;12.05;;;4.13;;
58302;SDS011;44109;52.398;7.024;2023-03-20T10:53:26;8.35;;;4.10;;
58302;SDS011;44109;52.398;7.024;2023-03-20T10:56:02;8.60;;;4.63;;
58302;SDS011;44109;52.398;7.024;2023-03-20T10:58:36;8.27;;;3.95;;
58302;SDS011;44109;52.398;7.024;2023-03-20T11:01:09;8.90;;;3.65;;
58302;SDS011;44109;52.398;7.024;2023-03-20T11:03:37;8.45;;;4.95;;
58302;SDS011;44109;52.398;7.024;2023-03-20T11:06:07;6.50;;;3.92;;
58302;SDS011;44109;52.398;7.024;2023-03-20T11:08:46;8.25;;;3.65;;
58302;SDS011;44109;52.398;7.024;2023-03-20T11:11:21;9.13;;;4.07;;
58302;SDS011;44109;52.398;7.024;2023-03-20T11:16:21;9.40;;;4.80;;
58302;SDS011;44109;52.398;7.024;2023-03-20T11:18:52;9.57;;;3.87;;
58302;SDS011;44109;52.398;7.024;2023-03-20T11:21:21;8.60;;;4.00;;
58302;SDS011;44109;52.398;7.024;2023-03-20T11:23:51;6.15;;;3.58;;
58302;SDS011;44109;52.398;7.024;2023-03-20T11:26:27;12.10;;;5.07;;
58302;SDS011;44109;52.398;7.024;2023-03-20T11:29:02;10.93;;;4.78;;
58302;SDS011;44109;52.398;7.024;2023-03-20T11:31:35;7.40;;;4.50;;
58302;SDS011;44109;52.398;7.024;2023-03-20T11:34:10;9.23;;;4.10;;
58302;SDS011;44109;52.398;7.024;2023-03-20T11:36:54;7.30;;;4.28;;
58302;SDS011;44109;52.398;7.024;2023-03-20T11:39:25;9.13;;;4.50;;
58302;SDS011;44109;52.398;7.024;2023-03-20T11:41:57;9.10;;;5.53;;
58302;SDS011;44109;52.398;7.024;2023-03-20T11:44:28;12.88;;;5.25;;
58302;SDS011;44109;52.398;7.024;2023-03-20T11:47:01;14.18;;;6.10;;
58302;SDS011;44109;52.398;7.024;2023-03-20T11:49:32;16.23;;;6.40;;
58302;SDS011;44109;52.398;7.024;2023-03-20T11:52:13;9.35;;;4.80;;
58302;SDS011;44109;52.398;7.024;2023-03-20T11:54:47;9.13;;;4.93;;
58302;SDS011;44109;52.398;7.024;2023-03-20T11:57:25;10.07;;;5.45;;
58302;SDS011;44109;52.398;7.024;2023-03-20T12:00:01;13.88;;;5.80;;
58302;SDS011;44109;52.398;7.024;2023-03-20T12:02:35;9.90;;;5.88;;
58302;SDS011;44109;52.398;7.024;2023-03-20T12:05:16;10.15;;;6.05;;
58302;SDS011;44109;52.398;7.024;2023-03-20T12:07:55;8.43;;;4.95;;
58302;SDS011;44109;52.398;7.024;2023-03-20T12:10:28;16.38;;;5.90;;
58302;SDS011;44109;52.398;7.024;2023-03-20T12:13:04;7.07;;;5.00;;
58302;SDS011;44109;52.398;7.024;2023-03-20T12:15:41;8.75;;;4.63;;
58302;SDS011;44109;52.398;7.024;2023-03-20T12:18:16;6.78;;;3.80;;
58302;SDS011;44109;52.398;7.024;2023-03-20T12:20:54;5.65;;;3.55;;
58302;SDS011;44109;52.398;7.024;2023-03-20T12:23:33;7.35;;;3.50;;
58302;SDS011;44109;52.398;7.024;2023-03-20T12:28:40;8.93;;;3.70;;
58302;SDS011;44109;52.398;7.024;2023-03-20T12:31:20;8.70;;;3.28;;
58302;SDS011;44109;52.398;7.024;2023-03-20T12:33:53;8.50;;;3.53;;
58302;SDS011;44109;52.398;7.024;2023-03-20T12:36:30;8.20;;;3.47;;
58302;SDS011;44109;52.398;7.024;2023-03-20T12:39:01;5.80;;;3.03;;
58302;SDS011;44109;52.398;7.024;2023-03-20T12:41:34;7.35;;;3.22;;
58302;SDS011;44109;52.398;7.024;2023-03-20T12:44:18;9.23;;;3.50;;
58302;SDS011;44109;52.398;7.024;2023-03-20T12:47:01;9.57;;;3.58;;
58302;SDS011;44109;52.398;7.024;2023-03-20T12:49:49;8.40;;;4.15;;
58302;SDS011;44109;52.398;7.024;2023-03-20T12:52:31;8.15;;;3.88;;
58302;SDS011;44109;52.398;7.024;2023-03-20T12:55:18;7.43;;;3.22;;
58302;SDS011;44109;52.398;7.024;2023-03-20T12:58:05;7.78;;;4.05;;
58302;SDS011;44109;52.398;7.024;2023-03-20T13:00:48;6.57;;;3.88;;
58302;SDS011;44109;52.398;7.024;2023-03-20T13:03:33;9.98;;;3.92;;
58302;SDS011;44109;52.398;7.024;2023-03-20T13:06:17;7.03;;;3.25;;
58302;SDS011;44109;52.398;7.024;2023-03-20T13:12:04;7.57;;;3.83;;
58302;SDS011;44109;52.398;7.024;2023-03-20T13:14:43;9.43;;;4.65;;
58302;SDS011;44109;52.398;7.024;2023-03-20T13:17:23;9.38;;;3.80;;
58302;SDS011;44109;52.398;7.024;2023-03-20T13:20:15;12.30;;;5.90;;
58302;SDS011;44109;52.398;7.024;2023-03-20T13:22:56;11.60;;;4.82;;
58302;SDS011;44109;52.398;7.024;2023-03-20T13:25:50;11.02;;;5.68;;
58302;SDS011;44109;52.398;7.024;2023-03-20T13:28:35;9.07;;;5.15;;
58302;SDS011;44109;52.398;7.024;2023-03-20T13:31:18;8.15;;;5.25;;
58302;SDS011;44109;52.398;7.024;2023-03-20T13:34:01;10.05;;;5.20;;
58302;SDS011;44109;52.398;7.024;2023-03-20T13:36:47;12.68;;;5.78;;
58302;SDS011;44109;52.398;7.024;2023-03-20T13:39:31;7.22;;;3.42;;
58302;SDS011;44109;52.398;7.024;2023-03-20T13:42:04;9.85;;;4.88;;
58302;SDS011;44109;52.398;7.024;2023-03-20T13:44:40;8.50;;;4.35;;
58302;SDS011;44109;52.398;7.024;2023-03-20T13:47:12;7.18;;;3.90;;
58302;SDS011;44109;52.398;7.024;2023-03-20T13:49:47;6.40;;;3.80;;
58302;SDS011;44109;52.398;7.024;2023-03-20T13:52:27;6.15;;;2.85;;
58302;SDS011;44109;52.398;7.024;2023-03-20T13:55:04;9.68;;;3.60;;
58302;SDS011;44109;52.398;7.024;2023-03-20T13:57:57;6.85;;;2.67;;
58302;SDS011;44109;52.398;7.024;2023-03-20T14:00:45;7.47;;;3.55;;
58302;SDS011;44109;52.398;7.024;2023-03-20T14:03:28;6.03;;;3.28;;
58302;SDS011;44109;52.398;7.024;2023-03-20T14:06:14;7.65;;;4.05;;
58302;SDS011;44109;52.398;7.024;2023-03-20T14:08:46;5.70;;;3.40;;
58302;SDS011;44109;52.398;7.024;2023-03-20T14:11:26;7.57;;;3.45;;
58302;SDS011;44109;52.398;7.024;2023-03-20T14:14:06;4.88;;;3.00;;
58302;SDS011;44109;52.398;7.024;2023-03-20T14:16:41;4.45;;;2.97;;
58302;SDS011;44109;52.398;7.024;2023-03-20T14:19:14;11.38;;;3.10;;
58302;SDS011;44109;52.398;7.024;2023-03-20T14:21:45;6.57;;;3.05;;
58302;SDS011;44109;52.398;7.024;2023-03-20T14:24:17;9.70;;;3.88;;
58302;SDS011;44109;52.398;7.024;2023-03-20T14:26:48;7.32;;;3.45;;
58302;SDS011;44109;52.398;7.024;2023-03-20T14:29:30;7.30;;;3.88;;
58302;SDS011;44109;52.398;7.024;2023-03-20T14:32:03;7.45;;;3.38;;
58302;SDS011;44109;52.398;7.024;2023-03-20T14:34:49;5.63;;;2.75;;
58302;SDS011;44109;52.398;7.024;2023-03-20T14:37:26;7.32;;;4.07;;
58302;SDS011;44109;52.398;7.024;2023-03-20T14:40:04;6.15;;;3.05;;
58302;SDS011;44109;52.398;7.024;2023-03-20T14:42:48;9.02;;;3.33;;
58302;SDS011;44109;52.398;7.024;2023-03-20T14:45:29;8.52;;;3.97;;
58302;SDS011;44109;52.398;7.024;2023-03-20T14:48:08;6.47;;;3.28;;
58302;SDS011;44109;52.398;7.024;2023-03-20T14:50:56;9.40;;;4.10;;
58302;SDS011;44109;52.398;7.024;2023-03-20T14:53:52;7.07;;;3.75;;
58302;SDS011;44109;52.398;7.024;2023-03-20T14:56:29;6.97;;;4.37;;
58302;SDS011;44109;52.398;7.024;2023-03-20T14:59:02;8.23;;;3.97;;
58302;SDS011;44109;52.398;7.024;2023-03-20T15:01:45;7.45;;;5.00;;
58302;SDS011;44109;52.398;7.024;2023-03-20T15:04:21;7.82;;;3.88;;
58302;SDS011;44109;52.398;7.024;2023-03-20T15:06:56;11.02;;;3.90;;
58302;SDS011;44109;52.398;7.024;2023-03-20T15:09:30;9.15;;;4.97;;
58302;SDS011;44109;52.398;7.024;2023-03-20T15:12:04;8.02;;;4.13;;
58302;SDS011;44109;52.398;7.024;2023-03-20T15:14:36;10.25;;;4.70;;
58302;SDS011;44109;52.398;7.024;2023-03-20T15:17:15;10.60;;;5.20;;
58302;SDS011;44109;52.398;7.024;2023-03-20T15:19:48;12.40;;;5.32;;
58302;SDS011;44109;52.398;7.024;2023-03-20T15:22:16;7.45;;;4.72;;
58302;SDS011;44109;52.398;7.024;2023-03-20T15:24:53;7.55;;;3.95;;
58302;SDS011;44109;52.398;7.024;2023-03-20T15:27:23;12.35;;;6.32;;
58302;SDS011;44109;52.398;7.024;2023-03-20T15:29:56;8.88;;;5.00;;
58302;SDS011;44109;52.398;7.024;2023-03-20T15:32:27;13.65;;;6.72;;
58302;SDS011;44109;52.398;7.024;2023-03-20T15:34:55;10.57;;;4.97;;
58302;SDS011;44109;52.398;7.024;2023-03-20T15:37:22;10.63;;;5.63;;